createdAt,value
2023-05-18T00:01:08.694Z,102470.22
2023-05-18T00:03:35.293Z,102468.81
2023-05-18T00:06:02.070Z,102472.66
2023-05-18T00:08:31.059Z,102474.84
2023-05-18T00:10:57.650Z,102476.53
2023-05-18T00:13:24.228Z,102476.84
2023-05-18T00:15:50.867Z,102478.25
2023-05-18T00:18:17.497Z,102474.84
2023-05-18T00:20:44.089Z,102474.31
2023-05-18T00:23:10.641Z,102478.00
2023-05-18T00:25:38.499Z,102481.84
2023-05-18T00:28:05.115Z,102481.00
2023-05-18T00:30:31.715Z,102476.78
2023-05-18T00:32:58.309Z,102478.22
2023-05-18T00:35:24.898Z,102481.28
2023-05-18T00:37:51.444Z,102482.88
2023-05-18T00:40:18.211Z,102482.03
2023-05-18T00:42:46.118Z,102476.50
2023-05-18T00:45:12.622Z,102475.84
2023-05-18T00:47:39.168Z,102485.56
2023-05-18T00:50:06.854Z,102479.34
2023-05-18T00:52:34.481Z,102484.06
2023-05-18T00:55:01.547Z,102480.97
2023-05-18T00:57:28.163Z,102486.53
2023-05-18T00:59:56.713Z,102486.53
2023-05-18T01:02:23.398Z,102485.31
2023-05-18T01:04:49.960Z,102489.66
2023-05-18T01:07:16.603Z,102490.59
2023-05-18T01:09:43.226Z,102489.50
2023-05-18T01:12:17.985Z,102488.75
2023-05-18T01:14:49.806Z,102489.78
2023-05-18T01:17:29.076Z,102493.59
2023-05-18T01:20:17.432Z,102486.22
2023-05-18T01:23:14.886Z,102480.47
2023-05-18T01:25:47.561Z,102481.41
2023-05-18T01:28:19.804Z,102482.53
2023-05-18T01:30:47.647Z,102490.59
2023-05-18T01:33:14.340Z,102480.88
2023-05-18T01:35:40.956Z,102482.75
2023-05-18T01:38:07.558Z,102485.56
2023-05-18T01:40:42.003Z,102488.31
2023-05-18T01:43:11.712Z,102489.66
2023-05-18T01:45:42.815Z,102487.75
2023-05-18T01:48:12.018Z,102486.06
2023-05-18T01:50:47.287Z,102495.69
2023-05-18T01:53:23.413Z,102487.47
2023-05-18T01:55:52.492Z,102493.13
2023-05-18T01:58:20.290Z,102496.53
2023-05-18T02:00:48.763Z,102489.72
2023-05-18T02:03:15.466Z,102498.50
2023-05-18T02:05:42.104Z,102489.72
2023-05-18T02:08:08.605Z,102485.47
2023-05-18T02:10:35.146Z,102496.25
2023-05-18T02:13:01.759Z,102484.84
2023-05-18T02:15:28.714Z,102497.66
2023-05-18T02:17:56.877Z,102490.19
2023-05-18T02:20:23.591Z,102484.72
2023-05-18T02:22:50.149Z,102489.41
2023-05-18T02:25:16.844Z,102482.44
2023-05-18T02:27:43.363Z,102481.88
2023-05-18T02:30:11.659Z,102495.09
2023-05-18T02:32:39.260Z,102486.13
2023-05-18T02:35:08.661Z,102485.28
2023-05-18T02:37:35.306Z,102489.91
2023-05-18T02:40:01.888Z,102482.91
2023-05-18T02:42:28.395Z,102491.13
2023-05-18T02:44:54.952Z,102485.84
2023-05-18T02:47:21.484Z,102490.53
2023-05-18T02:49:48.093Z,102486.97
2023-05-18T02:52:15.974Z,102491.47
2023-05-18T02:54:42.500Z,102480.22
2023-05-18T02:57:08.990Z,102478.66
2023-05-18T02:59:35.557Z,102483.00
2023-05-18T03:02:02.093Z,102477.03
2023-05-18T03:04:28.689Z,102483.16
2023-05-18T03:06:55.262Z,102476.34
2023-05-18T03:09:23.133Z,102472.09
2023-05-18T03:11:49.812Z,102476.72
2023-05-18T03:14:16.399Z,102480.31
2023-05-18T03:16:42.960Z,102472.56
2023-05-18T03:19:09.556Z,102476.13
2023-05-18T03:21:36.247Z,102475.47
2023-05-18T03:24:03.333Z,102475.56
2023-05-18T03:26:31.286Z,102474.72
2023-05-18T03:28:58.464Z,102473.78
2023-05-18T03:31:25.968Z,102468.41
2023-05-18T03:33:52.674Z,102472.06
2023-05-18T03:36:19.228Z,102467.81
2023-05-18T03:38:45.745Z,102468.75
2023-05-18T03:41:12.563Z,102476.69
2023-05-18T03:43:40.509Z,102472.16
2023-05-18T03:46:07.072Z,102471.31
2023-05-18T03:48:33.742Z,102470.63
2023-05-18T03:51:00.374Z,102473.19
2023-05-18T03:53:27.038Z,102473.19
2023-05-18T03:55:53.620Z,102475.56
2023-05-18T03:58:20.162Z,102483.41
2023-05-18T04:00:48.156Z,102479.06
2023-05-18T04:03:14.974Z,102488.47
2023-05-18T04:05:41.675Z,102486.59
2023-05-18T04:08:08.195Z,102490.00
2023-05-18T04:10:34.743Z,102494.28
2023-05-18T04:13:01.291Z,102496.91
2023-05-18T04:15:28.019Z,102491.63
2023-05-18T04:17:55.989Z,102497.69
2023-05-18T04:20:22.556Z,102494.75
2023-05-18T04:22:49.268Z,102500.88
2023-05-18T04:25:16.218Z,102501.81
2023-05-18T04:27:43.816Z,102499.94
2023-05-18T04:30:11.359Z,102503.25
2023-05-18T04:32:38.580Z,102506.00
2023-05-18T04:35:07.634Z,102504.00
2023-05-18T04:37:34.691Z,102504.75
2023-05-18T04:40:01.291Z,102508.09
2023-05-18T04:42:28.224Z,102501.56
2023-05-18T04:44:54.788Z,102513.56
2023-05-18T04:47:21.459Z,102514.25
2023-05-18T04:49:48.064Z,102508.59
2023-05-18T04:52:15.945Z,102507.56
2023-05-18T04:54:42.478Z,102509.91
2023-05-18T04:57:09.030Z,102511.63
2023-05-18T04:59:35.556Z,102510.41
2023-05-18T05:02:02.066Z,102515.53
2023-05-18T05:04:28.659Z,102518.91
2023-05-18T05:06:55.300Z,102510.88
2023-05-18T05:09:23.215Z,102518.91
2023-05-18T05:11:49.777Z,102523.06
2023-05-18T05:14:16.313Z,102518.63
2023-05-18T05:16:42.847Z,102514.09
2023-05-18T05:19:09.489Z,102512.09
2023-05-18T05:21:35.989Z,102519.84
2023-05-18T05:24:02.572Z,102520.25
2023-05-18T05:26:30.542Z,102521.72
2023-05-18T05:28:57.057Z,102527.41
2023-05-18T05:31:23.608Z,102520.03
2023-05-18T05:33:50.176Z,102512.09
2023-05-18T05:36:16.703Z,102521.56
2023-05-18T05:38:43.223Z,102520.97
2023-05-18T05:41:09.769Z,102518.06
2023-05-18T05:43:37.638Z,102522.31
2023-05-18T05:46:04.474Z,102522.41
2023-05-18T05:48:31.036Z,102522.31
2023-05-18T05:50:57.686Z,102526.66
2023-05-18T05:53:24.229Z,102530.63
2023-05-18T05:55:50.733Z,102523.06
2023-05-18T05:58:17.772Z,102518.13
2023-05-18T06:00:45.713Z,102523.31
2023-05-18T06:03:12.316Z,102524.84
2023-05-18T06:05:38.863Z,102524.06
2023-05-18T06:08:05.597Z,102527.09
2023-05-18T06:10:32.331Z,102533.78
2023-05-18T06:12:58.954Z,102533.38
2023-05-18T06:15:25.486Z,102533.09
2023-05-18T06:17:53.379Z,102533.47
2023-05-18T06:20:19.950Z,102534.47
2023-05-18T06:22:47.091Z,102530.59
2023-05-18T06:25:13.677Z,102527.81
2023-05-18T06:27:40.262Z,102535.75
2023-05-18T06:30:08.038Z,102537.19
2023-05-18T06:32:34.662Z,102532.72
2023-05-18T06:35:02.557Z,102540.03
2023-05-18T06:37:29.127Z,102540.19
2023-05-18T06:39:55.731Z,102538.81
2023-05-18T06:42:22.327Z,102538.19
2023-05-18T06:44:48.875Z,102533.63
2023-05-18T06:47:15.444Z,102532.06
2023-05-18T06:49:42.093Z,102528.66
2023-05-18T06:52:09.966Z,102538.78
2023-05-18T06:54:36.561Z,102536.53
2023-05-18T06:57:03.138Z,102538.13
2023-05-18T06:59:29.764Z,102532.72
2023-05-18T07:01:56.408Z,102534.94
2023-05-18T07:04:23.053Z,102538.13
2023-05-18T07:06:49.596Z,102540.03
2023-05-18T07:09:17.481Z,102542.25
2023-05-18T07:11:44.052Z,102539.38
2023-05-18T07:14:10.659Z,102534.94
2023-05-18T07:16:37.323Z,102538.63
2023-05-18T07:19:03.984Z,102540.31
2023-05-18T07:21:30.582Z,102546.69
2023-05-18T07:23:57.357Z,102550.00
2023-05-18T07:26:25.277Z,102550.28
2023-05-18T07:28:51.824Z,102547.06
2023-05-18T07:31:18.498Z,102550.88
2023-05-18T07:33:45.030Z,102548.97
2023-05-18T07:36:11.615Z,102553.59
2023-05-18T07:38:40.779Z,102545.31
2023-05-18T07:41:07.352Z,102549.75
2023-05-18T07:43:35.266Z,102555.03
2023-05-18T07:46:02.067Z,102550.91
2023-05-18T07:48:28.659Z,102550.22
2023-05-18T07:50:55.257Z,102569.81
2023-05-18T07:53:21.804Z,102564.44
2023-05-18T07:55:48.311Z,102559.03
2023-05-18T07:58:14.849Z,102561.38
2023-05-18T08:00:42.745Z,102572.28
2023-05-18T08:03:09.397Z,102572.88
2023-05-18T08:05:36.000Z,102570.72
2023-05-18T08:08:03.866Z,102575.09
2023-05-18T08:10:31.768Z,102563.81
2023-05-18T08:12:58.268Z,102564.34
2023-05-18T08:15:25.062Z,102562.25
2023-05-18T08:17:52.975Z,102557.31
2023-05-18T08:20:19.578Z,102562.00
2023-05-18T08:22:46.136Z,102549.94
2023-05-18T08:25:12.671Z,102560.94
2023-05-18T08:27:39.240Z,102555.50
2023-05-18T08:30:06.902Z,102556.69
2023-05-18T08:32:33.466Z,102554.78
2023-05-18T08:35:01.393Z,102556.25
2023-05-18T08:37:27.962Z,102549.22
2023-05-18T08:39:54.736Z,102546.28
2023-05-18T08:42:25.991Z,102549.09
2023-05-18T08:45:02.279Z,102545.78
2023-05-18T08:47:30.220Z,102537.66
2023-05-18T08:49:57.986Z,102543.16
2023-05-18T08:52:27.352Z,102538.63
2023-05-18T08:54:54.556Z,102543.00
2023-05-18T08:57:22.533Z,102544.16
2023-05-18T08:59:52.165Z,102535.31
2023-05-18T09:02:19.356Z,102525.28
2023-05-18T09:04:46.529Z,102531.16
2023-05-18T09:07:13.804Z,102527.09
2023-05-18T09:09:42.603Z,102515.41
2023-05-18T09:12:11.365Z,102526.22
2023-05-18T09:14:40.723Z,102524.91
2023-05-18T09:17:07.294Z,102524.81
2023-05-18T09:19:34.745Z,102523.63
2023-05-18T09:22:01.362Z,102518.72
2023-05-18T09:24:28.319Z,102519.63
2023-05-18T09:26:56.234Z,102534.91
2023-05-18T09:29:22.808Z,102529.50
2023-05-18T09:31:49.552Z,102520.34
2023-05-18T09:34:16.989Z,102525.50
2023-05-18T09:36:47.287Z,102530.34
2023-05-18T09:39:13.806Z,102528.66
2023-05-18T09:41:41.028Z,102519.38
2023-05-18T09:44:08.924Z,102523.44
2023-05-18T09:46:36.050Z,102519.22
2023-05-18T09:49:04.191Z,102525.25
2023-05-18T09:51:31.265Z,102528.69
2023-05-18T09:53:59.075Z,102520.06
2023-05-18T09:56:26.482Z,102518.38
2023-05-18T09:58:53.471Z,102510.38
2023-05-18T10:01:21.467Z,102519.09
2023-05-18T10:03:48.119Z,102520.09
2023-05-18T10:06:15.995Z,102516.13
2023-05-18T10:08:42.581Z,102497.00
2023-05-18T10:11:09.194Z,102501.34
2023-05-18T10:13:35.779Z,102504.47
2023-05-18T10:16:04.529Z,102499.84
2023-05-18T10:18:35.160Z,102490.09
2023-05-18T10:21:03.577Z,102493.19
2023-05-18T10:23:31.570Z,102499.00
2023-05-18T10:25:58.835Z,102485.66
2023-05-18T10:28:27.279Z,102494.28
2023-05-18T10:30:55.675Z,102492.16
2023-05-18T10:33:29.534Z,102492.00
2023-05-18T10:35:58.157Z,102492.56
2023-05-18T10:38:26.813Z,102487.34
2023-05-18T10:40:55.469Z,102486.94
2023-05-18T10:43:24.868Z,102487.50
2023-05-18T10:45:53.269Z,102489.16
2023-05-18T10:48:20.874Z,102483.94
2023-05-18T10:50:48.838Z,102486.38
2023-05-18T10:53:17.851Z,102491.41
2023-05-18T10:55:44.744Z,102490.81
2023-05-18T10:58:13.951Z,102490.84
2023-05-18T11:00:42.392Z,102483.00
2023-05-18T11:03:11.743Z,102484.25
2023-05-18T11:05:38.478Z,102481.97
2023-05-18T11:08:05.140Z,102477.59
2023-05-18T11:10:39.804Z,102482.25
2023-05-18T11:13:06.904Z,102483.91
2023-05-18T11:16:08.621Z,102483.19
2023-05-18T11:18:40.650Z,102476.97
2023-05-18T11:21:30.814Z,102476.97
2023-05-18T11:24:29.248Z,102471.59
2023-05-18T11:26:59.254Z,102472.16
2023-05-18T11:29:31.885Z,102468.88
2023-05-18T11:31:58.613Z,102458.38
2023-05-18T11:34:40.998Z,102456.41
2023-05-18T11:37:08.197Z,102463.00
2023-05-18T11:39:36.038Z,102448.31
2023-05-18T11:42:08.455Z,102447.66
2023-05-18T11:44:35.401Z,102444.22
2023-05-18T11:47:03.480Z,102453.31
2023-05-18T11:49:31.804Z,102439.44
2023-05-18T11:52:03.692Z,102443.50
2023-05-18T11:54:43.817Z,102438.00
2023-05-18T11:57:15.362Z,102440.47
2023-05-18T11:59:43.760Z,102438.72
2023-05-18T12:02:11.984Z,102439.91
2023-05-18T12:04:46.479Z,102437.94
2023-05-18T12:07:13.942Z,102432.19
2023-05-18T12:09:41.415Z,102435.19
2023-05-18T12:12:08.661Z,102435.41
2023-05-18T12:14:38.359Z,102427.91
2023-05-18T12:17:05.588Z,102429.97
2023-05-18T12:19:37.572Z,102428.97
2023-05-18T12:22:04.576Z,102425.13
2023-05-18T12:24:31.087Z,102427.66
2023-05-18T12:26:58.349Z,102424.81
2023-05-18T12:29:24.905Z,102423.97
2023-05-18T12:31:52.862Z,102425.50
2023-05-18T12:34:19.480Z,102418.88
2023-05-18T12:36:52.457Z,102424.25
2023-05-18T12:39:19.149Z,102423.75
2023-05-18T12:41:45.741Z,102420.47
2023-05-18T12:44:12.329Z,102418.19
2023-05-18T12:46:38.956Z,102412.47
2023-05-18T12:49:07.633Z,102414.19
2023-05-18T12:51:35.582Z,102415.66
2023-05-18T12:54:02.533Z,102411.69
2023-05-18T12:56:49.394Z,102406.47
2023-05-18T12:59:17.928Z,102406.09
2023-05-18T13:01:44.592Z,102401.56
2023-05-18T13:04:12.739Z,102402.22
2023-05-18T13:06:40.242Z,102404.16
2023-05-18T13:09:09.174Z,102402.03
2023-05-18T13:11:37.112Z,102395.44
2023-05-18T13:14:04.594Z,102395.78
2023-05-18T13:16:32.875Z,102396.78
2023-05-18T13:19:01.398Z,102396.34
2023-05-18T13:21:29.978Z,102397.34
2023-05-18T13:23:56.836Z,102389.78
2023-05-18T13:26:24.312Z,102391.94
2023-05-18T13:28:52.624Z,102392.03
2023-05-18T13:31:19.716Z,102377.75
2023-05-18T13:33:46.938Z,102380.19
2023-05-18T13:36:13.923Z,102380.63
2023-05-18T13:38:41.830Z,102377.19
2023-05-18T13:41:10.186Z,102373.66
2023-05-18T13:43:36.782Z,102367.66
2023-05-18T13:46:04.281Z,102366.56
2023-05-18T13:48:30.897Z,102367.03
2023-05-18T13:50:57.521Z,102362.88
2023-05-18T13:53:24.178Z,102357.00
2023-05-18T13:55:52.140Z,102351.47
2023-05-18T13:58:18.664Z,102357.84
2023-05-18T14:00:45.416Z,102355.69
2023-05-18T14:03:12.287Z,102352.84
2023-05-18T14:05:39.158Z,102348.19
2023-05-18T14:08:06.053Z,102350.19
2023-05-18T14:10:32.912Z,102352.16
2023-05-18T14:13:00.878Z,102349.78
2023-05-18T14:15:27.410Z,102350.38
2023-05-18T14:17:53.940Z,102348.53
2023-05-18T14:20:20.505Z,102347.00
2023-05-18T14:22:47.019Z,102344.19
2023-05-18T14:25:13.547Z,102335.72
2023-05-18T14:27:40.104Z,102340.31
2023-05-18T14:30:08.858Z,102338.75
2023-05-18T14:32:35.452Z,102337.22
2023-05-18T14:35:02.027Z,102336.09
2023-05-18T14:37:28.635Z,102330.97
2023-05-18T14:39:55.238Z,102337.56
2023-05-18T14:42:21.769Z,102337.09
2023-05-18T14:44:48.374Z,102331.66
2023-05-18T14:47:16.244Z,102334.19
2023-05-18T14:49:42.803Z,102336.78
2023-05-18T14:52:09.426Z,102334.09
2023-05-18T14:54:35.987Z,102332.72
2023-05-18T14:57:02.501Z,102331.72
2023-05-18T14:59:29.083Z,102323.38
2023-05-18T15:01:55.711Z,102328.88
2023-05-18T15:04:23.679Z,102332.94
2023-05-18T15:06:50.246Z,102333.16
2023-05-18T15:09:16.939Z,102319.69
2023-05-18T15:11:43.476Z,102321.13
2023-05-18T15:14:10.058Z,102330.03
2023-05-18T15:16:36.651Z,102318.13
2023-05-18T15:19:03.295Z,102318.13
2023-05-18T15:21:31.197Z,102322.66
2023-05-18T15:23:57.785Z,102316.63
2023-05-18T15:26:24.698Z,102311.50
2023-05-18T15:28:51.294Z,102320.00
2023-05-18T15:31:17.889Z,102320.69
2023-05-18T15:33:44.494Z,102314.72
2023-05-18T15:36:11.124Z,102302.47
2023-05-18T15:38:39.049Z,102305.56
2023-05-18T15:41:05.656Z,102305.22
2023-05-18T15:43:32.291Z,102306.66
2023-05-18T15:45:59.034Z,102303.22
2023-05-18T15:48:25.638Z,102304.31
2023-05-18T15:50:52.170Z,102304.25
2023-05-18T15:53:18.738Z,102299.75
2023-05-18T15:55:46.738Z,102299.06
2023-05-18T15:58:13.317Z,102306.81
2023-05-18T16:00:39.845Z,102299.63
2023-05-18T16:03:06.536Z,102303.69
2023-05-18T16:05:33.425Z,102299.47
2023-05-18T16:07:59.985Z,102298.16
2023-05-18T16:10:26.554Z,102287.38
2023-05-18T16:12:54.607Z,102295.44
2023-05-18T16:15:21.172Z,102299.72
2023-05-18T16:17:47.752Z,102294.84
2023-05-18T16:20:14.337Z,102299.44
2023-05-18T16:22:40.927Z,102294.97
2023-05-18T16:25:08.241Z,102298.75
2023-05-18T16:27:34.780Z,102282.66
2023-05-18T16:30:02.813Z,102288.19
2023-05-18T16:32:29.346Z,102296.44
2023-05-18T16:34:55.883Z,102289.88
2023-05-18T16:37:22.474Z,102284.66
2023-05-18T16:39:49.013Z,102285.09
2023-05-18T16:42:15.546Z,102286.69
2023-05-18T16:44:42.090Z,102282.72
2023-05-18T16:47:09.979Z,102286.03
2023-05-18T16:49:36.567Z,102289.94
2023-05-18T16:52:03.112Z,102288.53
2023-05-18T16:54:29.650Z,102280.91
2023-05-18T16:56:56.239Z,102290.63
2023-05-18T16:59:22.792Z,102285.06
2023-05-18T17:01:49.366Z,102286.88
2023-05-18T17:04:17.367Z,102284.34
2023-05-18T17:06:44.287Z,102292.00
2023-05-18T17:09:10.884Z,102287.28
2023-05-18T17:11:37.423Z,102288.72
2023-05-18T17:14:03.978Z,102277.84
2023-05-18T17:16:30.696Z,102289.81
2023-05-18T17:18:57.294Z,102285.88
2023-05-18T17:21:25.231Z,102284.91
2023-05-18T17:23:51.753Z,102283.34
2023-05-18T17:26:18.387Z,102281.00
2023-05-18T17:28:45.029Z,102280.75
2023-05-18T17:31:11.642Z,102282.75
2023-05-18T17:33:38.561Z,102277.56
2023-05-18T17:36:05.615Z,102277.06
2023-05-18T17:38:33.519Z,102274.03
2023-05-18T17:41:00.389Z,102269.13
2023-05-18T17:43:27.190Z,102262.63
2023-05-18T17:45:53.996Z,102268.13
2023-05-18T17:48:20.549Z,102270.41
2023-05-18T17:50:47.098Z,102264.47
2023-05-18T17:53:13.852Z,102265.66
2023-05-18T17:55:41.716Z,102269.66
2023-05-18T17:58:08.279Z,102266.16
2023-05-18T18:00:34.881Z,102271.19
2023-05-18T18:03:01.486Z,102272.56
2023-05-18T18:05:28.162Z,102272.66
2023-05-18T18:07:54.724Z,102256.81
2023-05-18T18:10:21.408Z,102268.03
2023-05-18T18:12:49.266Z,102269.00
2023-05-18T18:15:16.107Z,102268.75
2023-05-18T18:17:42.665Z,102266.59
2023-05-18T18:20:09.953Z,102263.19
2023-05-18T18:22:36.521Z,102264.38
2023-05-18T18:25:03.345Z,102263.41
2023-05-18T18:27:29.905Z,102272.31
2023-05-18T18:29:57.905Z,102262.06
2023-05-18T18:32:24.433Z,102273.56
2023-05-18T18:34:50.978Z,102271.38
2023-05-18T18:37:17.487Z,102275.63
2023-05-18T18:39:44.049Z,102278.63
2023-05-18T18:42:10.597Z,102278.16
2023-05-18T18:44:37.231Z,102279.88
2023-05-18T18:47:05.536Z,102284.69
2023-05-18T18:49:32.119Z,102287.09
2023-05-18T18:51:58.738Z,102282.91
2023-05-18T18:54:25.359Z,102292.47
2023-05-18T18:56:52.203Z,102293.47
2023-05-18T18:59:18.827Z,102290.13
2023-05-18T19:01:45.424Z,102292.81
2023-05-18T19:04:13.336Z,102289.44
2023-05-18T19:06:39.966Z,102296.75
2023-05-18T19:09:06.540Z,102300.69
2023-05-18T19:11:33.069Z,102299.16
2023-05-18T19:13:59.595Z,102297.34
2023-05-18T19:16:26.297Z,102305.50
2023-05-18T19:18:52.923Z,102306.75
2023-05-18T19:21:20.867Z,102304.66
2023-05-18T19:23:47.435Z,102301.81
2023-05-18T19:26:13.989Z,102309.97
2023-05-18T19:28:40.528Z,102307.84
2023-05-18T19:31:07.074Z,102305.03
2023-05-18T19:33:33.588Z,102309.81
2023-05-18T19:36:00.210Z,102308.69
2023-05-18T19:38:28.178Z,102315.53
2023-05-18T19:40:54.687Z,102310.44
2023-05-18T19:43:21.186Z,102312.81
2023-05-18T19:45:48.083Z,102316.03
2023-05-18T19:48:14.640Z,102325.53
2023-05-18T19:50:41.214Z,102316.25
2023-05-18T19:53:07.743Z,102322.84
2023-05-18T19:55:35.632Z,102329.44
2023-05-18T19:58:02.140Z,102328.13
2023-05-18T20:00:28.699Z,102333.03
2023-05-18T20:02:55.272Z,102336.94
2023-05-18T20:05:21.826Z,102338.28
2023-05-18T20:07:48.369Z,102336.88
2023-05-18T20:10:15.308Z,102341.25
2023-05-18T20:12:43.177Z,102335.44
2023-05-18T20:15:10.042Z,102329.56
2023-05-18T20:17:36.678Z,102340.72
2023-05-18T20:20:03.531Z,102338.59
2023-05-18T20:22:30.214Z,102336.44
2023-05-18T20:24:56.748Z,102338.69
2023-05-18T20:27:23.297Z,102338.22
2023-05-18T20:29:51.146Z,102341.28
2023-05-18T20:32:17.713Z,102341.66
2023-05-18T20:34:44.244Z,102340.34
2023-05-18T20:37:11.168Z,102340.50
2023-05-18T20:39:37.801Z,102338.06
2023-05-18T20:42:04.738Z,102342.69
2023-05-18T20:44:31.252Z,102342.94
2023-05-18T20:46:59.116Z,102350.22
2023-05-18T20:49:25.722Z,102354.31
2023-05-18T20:51:52.306Z,102352.91
2023-05-18T20:54:18.862Z,102360.28
2023-05-18T20:56:45.413Z,102362.47
2023-05-18T20:59:11.960Z,102356.41
2023-05-18T21:01:38.738Z,102363.00
2023-05-18T21:04:06.899Z,102362.34
2023-05-18T21:06:33.652Z,102356.56
2023-05-18T21:09:00.928Z,102358.75
2023-05-18T21:11:27.554Z,102363.63
2023-05-18T21:13:54.066Z,102361.34
2023-05-18T21:16:20.723Z,102361.69
2023-05-18T21:18:47.318Z,102357.72
2023-05-18T21:21:15.247Z,102366.78
2023-05-18T21:23:41.800Z,102361.03
2023-05-18T21:26:08.357Z,102364.78
2023-05-18T21:28:34.897Z,102355.22
2023-05-18T21:31:01.460Z,102362.84
2023-05-18T21:33:28.028Z,102358.63
2023-05-18T21:35:54.713Z,102358.00
2023-05-18T21:38:22.661Z,102353.94
2023-05-18T21:40:49.193Z,102355.00
2023-05-18T21:43:15.710Z,102357.91
2023-05-18T21:45:42.271Z,102360.69
2023-05-18T21:48:09.301Z,102361.91
2023-05-18T21:50:35.899Z,102363.09
2023-05-18T21:53:02.635Z,102365.88
2023-05-18T21:55:31.119Z,102359.97
2023-05-18T21:57:57.693Z,102369.91
2023-05-18T22:00:24.301Z,102369.28
2023-05-18T22:02:50.845Z,102368.66
2023-05-18T22:05:18.195Z,102376.88
2023-05-18T22:07:44.715Z,102375.31
2023-05-18T22:10:11.272Z,102376.41
2023-05-18T22:12:39.132Z,102368.66
2023-05-18T22:15:07.031Z,102375.19
2023-05-18T22:17:33.633Z,102374.34
2023-05-18T22:20:00.266Z,102367.56
2023-05-18T22:22:30.587Z,102370.34
2023-05-18T22:24:57.636Z,102369.97
2023-05-18T22:27:24.191Z,102368.28
2023-05-18T22:29:52.088Z,102361.28
2023-05-18T22:32:18.609Z,102368.16
2023-05-18T22:34:45.194Z,102365.63
2023-05-18T22:37:11.748Z,102370.22
2023-05-18T22:39:38.268Z,102373.81
2023-05-18T22:42:05.047Z,102370.44
2023-05-18T22:44:31.560Z,102368.75
2023-05-18T22:46:59.568Z,102368.03
2023-05-18T22:49:26.099Z,102369.00
2023-05-18T22:51:52.752Z,102367.53
2023-05-18T22:54:19.318Z,102365.72
2023-05-18T22:56:45.836Z,102367.53
2023-05-18T22:59:12.405Z,102362.44
2023-05-18T23:01:39.062Z,102360.03
2023-05-18T23:04:07.095Z,102359.91
2023-05-18T23:06:33.682Z,102355.69
2023-05-18T23:09:00.228Z,102352.94
2023-05-18T23:11:26.796Z,102355.06
2023-05-18T23:13:53.325Z,102348.69
2023-05-18T23:16:19.975Z,102337.78
2023-05-18T23:18:46.585Z,102345.75
2023-05-18T23:21:14.577Z,102348.56
2023-05-18T23:23:41.261Z,102343.09
2023-05-18T23:26:07.869Z,102342.38
2023-05-18T23:28:34.405Z,102338.78
2023-05-18T23:31:01.024Z,102334.91
2023-05-18T23:33:28.147Z,102335.41
2023-05-18T23:35:59.758Z,102331.50
2023-05-18T23:38:30.969Z,102326.69
2023-05-18T23:40:57.611Z,102331.06
2023-05-18T23:43:24.749Z,102325.63
2023-05-18T23:45:51.773Z,102338.06
2023-05-18T23:48:18.860Z,102330.31
2023-05-18T23:50:45.918Z,102323.31
2023-05-18T23:53:14.990Z,102320.03
2023-05-18T23:55:43.115Z,102327.16
2023-05-18T23:58:10.226Z,102319.34
